Time;durP1;ratioP1;P1;durP2;ratioP2;P2;SDS_P1;SDS_P2;PMS_P1;PMS_P2;Temp;Humidity;BMP_temperature;BMP_pressure;BME280_temperature;BME280_humidity;BME280_pressure;Samples;Min_cycle;Max_cycle;Signal;HPM_P1;HPM_P2
2022/09/23 00:00:45;;;;;;;11.40;7.30;;;13.00;99.90;;;;;;5153856;27;20046;-67
2022/09/23 00:03:11;;;;;;;12.80;7.20;;;13.00;99.90;;;;;;5135074;27;20487;-67
2022/09/23 00:05:37;;;;;;;14.20;7.30;;;13.00;99.90;;;;;;5153909;27;20399;-68
2022/09/23 00:08:07;;;;;;;13.82;7.28;;;12.90;99.90;;;;;;5170556;27;20047;-68
2022/09/23 00:10:36;;;;;;;11.30;7.90;;;12.90;99.90;;;;;;5154494;27;20437;-67
2022/09/23 00:13:03;;;;;;;12.23;7.15;;;12.90;99.90;;;;;;5152609;27;20073;-67
2022/09/23 00:15:30;;;;;;;11.43;7.75;;;13.00;99.90;;;;;;5152026;27;20411;-68
2022/09/23 00:17:56;;;;;;;12.60;7.63;;;13.60;99.90;;;;;;5153564;27;20074;-68
2022/09/23 00:20:22;;;;;;;11.63;7.38;;;12.80;99.90;;;;;;5153614;27;20407;-68
2022/09/23 00:22:48;;;;;;;12.90;8.48;;;12.80;99.90;;;;;;5134607;27;20043;-68
2022/09/23 00:25:13;;;;;;;12.75;7.60;;;12.80;99.90;;;;;;5135388;27;20046;-67
2022/09/23 00:27:41;;;;;;;11.32;7.63;;;12.70;99.90;;;;;;5143678;27;20026;-67
2022/09/23 00:30:08;;;;;;;10.02;7.65;;;12.70;99.90;;;;;;5153082;27;20448;-68
2022/09/23 00:32:36;;;;;;;12.35;7.38;;;12.70;99.90;;;;;;5153446;27;20042;-68
2022/09/23 00:35:02;;;;;;;11.90;7.65;;;12.70;99.90;;;;;;5153289;27;20043;-67
2022/09/23 00:37:29;;;;;;;11.00;7.75;;;12.70;99.90;;;;;;5134817;27;20043;-68
2022/09/23 00:39:55;;;;;;;10.35;7.43;;;12.70;99.90;;;;;;5153546;27;20516;-67
2022/09/23 00:42:23;;;;;;;12.90;8.05;;;12.80;99.90;;;;;;5135230;27;20069;-68
2022/09/23 00:44:51;;;;;;;10.10;7.82;;;12.60;99.90;;;;;;5153947;27;20042;-68
2022/09/23 00:47:43;;;;;;;10.45;7.70;;;12.60;99.90;;;;;;5114504;28;20039;-68
2022/09/23 00:50:09;;;;;;;11.50;7.85;;;12.70;99.90;;;;;;5113398;28;20047;-68
2022/09/23 00:52:36;;;;;;;12.68;7.65;;;12.70;99.90;;;;;;5132816;28;20502;-67
2022/09/23 00:55:07;;;;;;;11.73;7.53;;;12.70;99.90;;;;;;5133217;28;20062;-67
2022/09/23 00:57:35;;;;;;;12.27;7.80;;;12.60;99.90;;;;;;5137372;27;20068;-68
2022/09/23 01:00:04;;;;;;;9.70;7.75;;;12.80;99.90;;;;;;5153929;27;20038;-68
2022/09/23 01:02:30;;;;;;;12.25;8.00;;;12.60;99.90;;;;;;5132458;27;20133;-68
2022/09/23 01:04:56;;;;;;;10.70;7.57;;;12.60;99.90;;;;;;5143923;27;20046;-67
2022/09/23 01:07:22;;;;;;;10.48;7.72;;;12.60;99.90;;;;;;5132988;28;20057;-67
2022/09/23 01:09:48;;;;;;;12.98;7.75;;;12.50;99.90;;;;;;5133161;28;20039;-67
2022/09/23 01:12:35;;;;;;;12.73;7.75;;;13.00;99.90;;;;;;5136346;27;20079;-67
2022/09/23 01:15:27;;;;;;;12.73;7.63;;;12.50;99.90;;;;;;5157372;27;20046;-67
2022/09/23 01:18:08;;;;;;;13.60;7.38;;;12.50;99.90;;;;;;5156460;27;20042;-67
2022/09/23 01:20:52;;;;;;;10.88;7.75;;;12.50;99.90;;;;;;5156941;27;20057;-68
2022/09/23 01:23:46;;;;;;;9.23;7.38;;;12.60;99.90;;;;;;5156876;27;20061;-68
2022/09/23 01:26:42;;;;;;;11.07;7.70;;;12.50;99.90;;;;;;5156903;27;20397;-68
2022/09/23 01:29:19;;;;;;;9.52;6.95;;;12.40;99.90;;;;;;5157016;27;20433;-67
2022/09/23 01:31:56;;;;;;;14.90;7.40;;;12.40;99.90;;;;;;5154845;27;20042;-68
2022/09/23 01:34:37;;;;;;;10.68;7.65;;;12.30;99.90;;;;;;5138211;27;20372;-67
2022/09/23 01:37:09;;;;;;;12.82;7.60;;;12.30;99.90;;;;;;5156362;27;20383;-68
2022/09/23 01:40:00;;;;;;;10.60;7.50;;;12.30;99.90;;;;;;5156699;27;20529;-68
2022/09/23 01:42:41;;;;;;;10.32;6.88;;;12.30;99.90;;;;;;5127519;27;20038;-67
2022/09/23 01:45:11;;;;;;;11.10;7.15;;;12.30;99.90;;;;;;5156424;27;20043;-68
2022/09/23 01:47:50;;;;;;;10.70;7.35;;;12.30;99.90;;;;;;5117205;27;20058;-68
2022/09/23 01:53:10;;;;;;;11.30;7.65;;;12.40;99.90;;;;;;5151559;27;20050;-69
2022/09/23 01:55:41;;;;;;;11.75;7.13;;;12.30;99.90;;;;;;5156572;27;20125;-68
2022/09/23 01:58:29;;;;;;;8.98;6.88;;;12.30;99.90;;;;;;5154784;27;20391;-68
2022/09/23 02:01:00;;;;;;;11.02;7.53;;;12.20;99.90;;;;;;5156019;27;20087;-67
2022/09/23 02:03:54;;;;;;;10.05;7.03;;;12.20;99.90;;;;;;5156466;27;20049;-68
2022/09/23 02:06:24;;;;;;;9.48;7.32;;;12.30;99.90;;;;;;5156363;27;20074;-67
2022/09/23 02:09:10;;;;;;;10.00;7.28;;;12.30;99.90;;;;;;5152829;27;20221;-67
2022/09/23 02:11:36;;;;;;;12.97;7.73;;;12.40;99.90;;;;;;5155929;27;20074;-68
2022/09/23 02:14:05;;;;;;;11.32;7.03;;;12.30;99.90;;;;;;5137670;27;20288;-67
2022/09/23 02:16:50;;;;;;;10.73;7.75;;;12.30;99.90;;;;;;5156071;27;20053;-68
2022/09/23 02:19:34;;;;;;;12.18;6.93;;;12.30;99.90;;;;;;5137637;27;20042;-68
2022/09/23 02:22:14;;;;;;;13.25;7.28;;;12.30;99.90;;;;;;5137232;27;20095;-67
2022/09/23 02:24:39;;;;;;;9.77;7.10;;;12.20;99.90;;;;;;5154980;27;20495;-68
2022/09/23 02:27:17;;;;;;;11.27;7.60;;;12.90;99.90;;;;;;5143230;27;20122;-67
2022/09/23 02:29:54;;;;;;;10.75;7.10;;;12.10;99.90;;;;;;5135394;27;20413;-67
2022/09/23 02:32:48;;;;;;;10.45;7.00;;;12.00;99.90;;;;;;5134549;27;20131;-68
2022/09/23 02:35:25;;;;;;;9.38;7.00;;;12.00;99.90;;;;;;5134549;27;20051;-68
2022/09/23 02:38:15;;;;;;;11.48;7.40;;;12.00;99.90;;;;;;5127012;27;20039;-67
2022/09/23 02:40:49;;;;;;;9.18;7.13;;;12.00;99.90;;;;;;5131933;27;20071;-68
2022/09/23 02:43:21;;;;;;;9.68;7.00;;;12.00;99.90;;;;;;5155122;27;20038;-67
2022/09/23 02:45:48;;;;;;;10.32;7.78;;;12.00;99.90;;;;;;5155690;27;20046;-67
2022/09/23 02:48:24;;;;;;;9.55;7.20;;;12.00;99.90;;;;;;5136659;27;20051;-68
2022/09/23 02:50:51;;;;;;;13.02;7.40;;;12.00;99.90;;;;;;5155074;27;20039;-68
2022/09/23 02:53:17;;;;;;;9.65;7.63;;;11.90;99.90;;;;;;5155116;27;20050;-68
2022/09/23 02:55:43;;;;;;;9.88;7.47;;;12.00;99.90;;;;;;5154626;27;20050;-67
2022/09/23 02:58:12;;;;;;;10.98;7.70;;;11.90;99.90;;;;;;5163043;27;20072;-68
2022/09/23 03:01:03;;;;;;;13.25;7.72;;;12.00;99.90;;;;;;5154051;27;20045;-67
2022/09/23 03:03:55;;;;;;;11.40;7.70;;;11.90;99.90;;;;;;5155119;27;20046;-67
2022/09/23 03:06:41;;;;;;;10.13;7.55;;;11.80;99.90;;;;;;5153886;27;20053;-67
2022/09/23 03:09:23;;;;;;;10.57;7.85;;;11.80;99.90;;;;;;5155280;27;20099;-68
2022/09/23 03:11:58;;;;;;;8.80;7.85;;;11.70;99.90;;;;;;5154143;27;20043;-67
2022/09/23 03:14:52;;;;;;;12.30;8.27;;;11.70;99.90;;;;;;5139388;27;20164;-68
2022/09/23 03:17:37;;;;;;;9.95;7.93;;;11.70;99.90;;;;;;5144016;27;20043;-67
2022/09/23 03:20:11;;;;;;;9.15;7.47;;;11.70;99.90;;;;;;5149395;27;20042;-67
2022/09/23 03:22:46;;;;;;;10.57;7.93;;;11.70;99.90;;;;;;5154530;27;20067;-68
2022/09/23 03:25:15;;;;;;;11.60;8.43;;;11.60;99.90;;;;;;5154454;27;20043;-68
2022/09/23 03:27:42;;;;;;;11.55;8.23;;;11.60;99.90;;;;;;5154488;27;20145;-67
2022/09/23 03:30:09;;;;;;;9.73;8.02;;;11.60;99.90;;;;;;5133975;27;20038;-68
2022/09/23 03:32:37;;;;;;;10.43;8.10;;;11.60;99.90;;;;;;5152670;27;20053;-68
2022/09/23 03:35:04;;;;;;;11.20;8.20;;;11.60;99.90;;;;;;5154107;27;20043;-68
2022/09/23 03:37:58;;;;;;;10.13;7.85;;;11.60;99.90;;;;;;5153792;27;20061;-68
2022/09/23 03:40:31;;;;;;;11.93;8.20;;;11.60;99.90;;;;;;5142867;27;20066;-68
2022/09/23 03:42:59;;;;;;;10.43;8.27;;;11.50;99.90;;;;;;5154313;27;20438;-66
2022/09/23 03:45:35;;;;;;;12.52;8.45;;;11.60;99.90;;;;;;5135268;27;20505;-66
2022/09/23 03:48:01;;;;;;;10.20;8.43;;;11.40;99.90;;;;;;5148342;27;20884;-66
2022/09/23 03:50:27;;;;;;;12.82;8.57;;;11.50;99.90;;;;;;5154277;27;20160;-66
2022/09/23 03:52:53;;;;;;;11.07;7.90;;;11.40;99.90;;;;;;5153768;27;20042;-67
2022/09/23 03:55:20;;;;;;;11.07;8.43;;;11.80;99.90;;;;;;5153695;27;20045;-69
2022/09/23 03:57:46;;;;;;;10.23;7.70;;;11.40;99.90;;;;;;5152693;27;20045;-66
2022/09/23 04:00:13;;;;;;;12.00;8.38;;;11.40;99.90;;;;;;5153912;27;20035;-67
2022/09/23 04:02:39;;;;;;;12.38;8.48;;;11.40;99.90;;;;;;5153546;27;20041;-67
2022/09/23 04:05:06;;;;;;;10.38;8.32;;;11.40;99.90;;;;;;5143383;27;20046;-67
2022/09/23 04:07:32;;;;;;;10.80;8.43;;;11.40;99.90;;;;;;5147529;27;20042;-67
2022/09/23 04:09:58;;;;;;;12.63;8.82;;;11.40;99.90;;;;;;5154185;27;20095;-67
2022/09/23 04:12:23;;;;;;;13.32;8.60;;;11.70;99.90;;;;;;5153883;27;20035;-67
2022/09/23 04:14:49;;;;;;;11.75;9.18;;;11.70;99.90;;;;;;5118372;27;20038;-67
2022/09/23 04:17:15;;;;;;;13.68;9.30;;;11.40;99.90;;;;;;5153901;27;20041;-67
2022/09/23 04:19:40;;;;;;;11.75;8.55;;;11.80;99.90;;;;;;5153947;27;20519;-67
2022/09/23 04:22:07;;;;;;;12.95;8.63;;;11.40;99.90;;;;;;5153726;27;20035;-67
2022/09/23 04:24:33;;;;;;;14.57;8.90;;;11.30;99.90;;;;;;5154156;27;20043;-67
2022/09/23 04:26:59;;;;;;;11.95;8.95;;;11.30;99.90;;;;;;5153737;27;20548;-67
2022/09/23 04:29:25;;;;;;;11.23;9.15;;;11.30;99.90;;;;;;5154263;27;20042;-67
2022/09/23 04:31:51;;;;;;;12.15;8.90;;;11.30;99.90;;;;;;5134751;27;20046;-67
2022/09/23 04:34:18;;;;;;;11.85;9.43;;;11.30;99.90;;;;;;5153253;27;20142;-67
2022/09/23 04:36:44;;;;;;;9.95;8.85;;;11.20;99.90;;;;;;5134721;27;20057;-67
2022/09/23 04:39:11;;;;;;;12.45;9.30;;;11.30;99.90;;;;;;5153714;27;20039;-67
2022/09/23 04:41:36;;;;;;;14.90;8.98;;;11.20;99.90;;;;;;5152828;27;20487;-67
2022/09/23 04:44:03;;;;;;;12.52;8.88;;;11.20;99.90;;;;;;5153809;27;20088;-67
2022/09/23 04:46:30;;;;;;;12.30;9.23;;;11.20;99.90;;;;;;5117768;27;20531;-67
2022/09/23 04:48:56;;;;;;;13.48;9.90;;;11.20;99.90;;;;;;5141170;27;20054;-67
2022/09/23 04:51:24;;;;;;;13.50;9.50;;;11.20;99.90;;;;;;5157777;27;20046;-67
2022/09/23 04:53:51;;;;;;;13.75;10.00;;;11.30;99.90;;;;;;5139305;27;20409;-67
2022/09/23 04:56:31;;;;;;;13.20;10.20;;;12.50;99.90;;;;;;5157398;27;20082;-67
2022/09/23 04:58:57;;;;;;;13.02;10.00;;;11.90;99.90;;;;;;5157283;27;20046;-67
2022/09/23 05:01:25;;;;;;;12.20;9.85;;;11.20;99.90;;;;;;5156886;27;20085;-67
2022/09/23 05:03:53;;;;;;;13.73;10.15;;;11.10;99.90;;;;;;5157209;27;20141;-67
2022/09/23 05:06:19;;;;;;;12.65;10.20;;;11.70;99.90;;;;;;5138716;27;20479;-67
2022/09/23 05:08:50;;;;;;;13.55;10.60;;;11.20;99.90;;;;;;5138643;27;20091;-67
2022/09/23 05:11:17;;;;;;;13.85;11.40;;;11.20;99.90;;;;;;5156886;27;20077;-67
2022/09/23 05:13:44;;;;;;;16.48;10.82;;;11.30;99.90;;;;;;5156952;27;20042;-67
2022/09/23 05:16:11;;;;;;;14.27;10.75;;;11.20;99.90;;;;;;5156701;27;20043;-67
2022/09/23 05:18:39;;;;;;;14.50;11.57;;;11.10;99.90;;;;;;5156321;27;20122;-68
2022/09/23 05:21:06;;;;;;;13.43;10.88;;;11.10;99.90;;;;;;5130123;27;20046;-67
2022/09/23 05:23:32;;;;;;;14.02;10.85;;;11.60;99.90;;;;;;5157165;27;20034;-67
2022/09/23 05:26:00;;;;;;;17.02;10.95;;;11.10;99.90;;;;;;5156408;27;20557;-67
2022/09/23 05:28:31;;;;;;;25.02;12.05;;;11.10;99.90;;;;;;5156707;27;20038;-68
2022/09/23 05:31:18;;;;;;;18.10;11.50;;;11.20;99.90;;;;;;5156656;27;20038;-68
2022/09/23 05:33:47;;;;;;;18.35;11.32;;;11.10;99.90;;;;;;5137650;27;20086;-69
2022/09/23 05:36:13;;;;;;;16.33;11.60;;;11.10;99.90;;;;;;5156194;27;20047;-67
2022/09/23 05:38:39;;;;;;;18.83;11.90;;;11.10;99.90;;;;;;5138176;27;20531;-67
2022/09/23 05:41:07;;;;;;;19.13;11.73;;;11.10;99.90;;;;;;5156458;27;20074;-68
2022/09/23 05:43:34;;;;;;;16.27;11.82;;;11.10;99.90;;;;;;5156300;27;20047;-67
2022/09/23 05:46:06;;;;;;;13.85;11.50;;;11.10;99.90;;;;;;5137749;27;20095;-68
2022/09/23 05:48:33;;;;;;;18.77;11.68;;;11.10;99.90;;;;;;5154725;27;20042;-67
2022/09/23 05:51:00;;;;;;;15.25;11.57;;;11.10;99.90;;;;;;5134380;27;20142;-68
2022/09/23 05:53:29;;;;;;;17.75;11.95;;;11.10;99.90;;;;;;5156065;27;20049;-68
2022/09/23 05:55:56;;;;;;;18.50;12.13;;;11.10;99.90;;;;;;5155303;27;20031;-67
2022/09/23 05:58:23;;;;;;;18.65;11.85;;;11.10;99.90;;;;;;5156010;27;20462;-67
2022/09/23 06:00:49;;;;;;;25.27;12.32;;;11.00;99.90;;;;;;5136082;27;20053;-69
2022/09/23 06:03:17;;;;;;;18.40;12.10;;;11.10;99.90;;;;;;5155764;27;20107;-67
2022/09/23 06:05:43;;;;;;;13.55;11.95;;;11.00;99.90;;;;;;5155347;27;20051;-67
2022/09/23 06:08:09;;;;;;;15.18;11.98;;;11.10;99.90;;;;;;5133724;27;20039;-68
2022/09/23 06:10:40;;;;;;;16.20;12.63;;;11.10;99.90;;;;;;5135129;27;20122;-70
2022/09/23 06:13:07;;;;;;;14.27;11.95;;;11.10;99.90;;;;;;5110143;27;20047;-68
2022/09/23 06:15:33;;;;;;;16.40;11.82;;;11.20;99.90;;;;;;5135012;27;20043;-69
2022/09/23 06:17:59;;;;;;;18.25;12.05;;;11.20;99.90;;;;;;5135256;27;20417;-70
2022/09/23 06:20:25;;;;;;;18.48;12.68;;;11.20;99.90;;;;;;5134869;27;20043;-68
2022/09/23 06:22:51;;;;;;;15.18;12.15;;;11.30;99.90;;;;;;5116135;27;20047;-69
2022/09/23 06:25:18;;;;;;;18.70;12.13;;;11.60;99.90;;;;;;5149269;27;20432;-69
2022/09/23 06:27:53;;;;;;;16.67;11.70;;;12.20;99.90;;;;;;5155650;27;20050;-69
2022/09/23 06:30:19;;;;;;;20.05;12.60;;;11.60;99.90;;;;;;5155843;27;20047;-69
2022/09/23 06:32:52;;;;;;;18.92;12.52;;;11.40;99.90;;;;;;5155716;27;20041;-68
2022/09/23 06:35:20;;;;;;;23.73;13.93;;;11.40;99.90;;;;;;5155425;27;20490;-68
2022/09/23 06:37:46;;;;;;;16.45;12.75;;;11.40;99.90;;;;;;5154942;27;20043;-68
2022/09/23 06:40:13;;;;;;;14.90;12.30;;;11.50;99.90;;;;;;5155010;27;20084;-68
2022/09/23 06:42:40;;;;;;;15.25;12.13;;;11.50;99.90;;;;;;5136123;27;20080;-68
2022/09/23 06:45:06;;;;;;;17.35;12.48;;;11.60;99.90;;;;;;5154757;27;20051;-68
2022/09/23 06:47:32;;;;;;;17.52;12.75;;;11.60;99.90;;;;;;5150675;27;20031;-69
2022/09/23 06:49:57;;;;;;;21.33;12.38;;;11.70;99.90;;;;;;5134503;27;20046;-69
2022/09/23 06:52:23;;;;;;;17.30;11.68;;;11.90;99.90;;;;;;5155095;27;20549;-69
2022/09/23 06:54:49;;;;;;;18.98;12.52;;;12.10;99.90;;;;;;5136941;27;20058;-69
2022/09/23 06:57:15;;;;;;;17.08;12.52;;;12.50;99.90;;;;;;5154912;27;20065;-69
2022/09/23 06:59:41;;;;;;;16.27;11.82;;;12.80;99.90;;;;;;5136526;27;20039;-69
2022/09/23 07:02:11;;;;;;;12.93;11.55;;;13.00;99.90;;;;;;5136205;27;20042;-69
2022/09/23 07:04:37;;;;;;;14.73;11.13;;;13.10;99.90;;;;;;5155400;27;20078;-69
2022/09/23 07:07:03;;;;;;;16.90;11.95;;;13.10;99.90;;;;;;5135865;27;20066;-68
2022/09/23 07:09:28;;;;;;;16.02;12.07;;;13.10;99.90;;;;;;5153601;27;20039;-68
2022/09/23 07:11:54;;;;;;;14.70;11.45;;;13.10;99.90;;;;;;5135630;27;20047;-67
2022/09/23 07:14:20;;;;;;;15.77;11.23;;;12.90;99.90;;;;;;5155295;27;20035;-67
2022/09/23 07:16:49;;;;;;;14.48;11.18;;;12.80;99.90;;;;;;5154325;27;20092;-68
2022/09/23 07:19:15;;;;;;;16.15;11.38;;;13.00;99.90;;;;;;5135055;27;20046;-68
2022/09/23 07:21:41;;;;;;;17.63;11.75;;;12.60;99.90;;;;;;5154295;27;20046;-69
2022/09/23 07:24:07;;;;;;;14.88;11.52;;;12.60;99.90;;;;;;5154797;27;20130;-69
2022/09/23 07:26:33;;;;;;;18.52;11.82;;;12.60;99.90;;;;;;5164509;27;20105;-70
2022/09/23 07:29:03;;;;;;;18.05;11.60;;;12.50;99.90;;;;;;5175836;27;20038;-68
2022/09/23 07:31:33;;;;;;;13.85;11.77;;;12.60;99.90;;;;;;5156416;27;20051;-69
2022/09/23 07:34:00;;;;;;;17.80;11.55;;;12.60;99.90;;;;;;5156631;27;20065;-68
2022/09/23 07:36:27;;;;;;;16.88;12.02;;;12.70;99.90;;;;;;5156285;27;20407;-69
2022/09/23 07:39:00;;;;;;;16.52;12.23;;;12.60;99.90;;;;;;5135498;27;20091;-69
2022/09/23 07:41:27;;;;;;;17.55;12.43;;;12.50;99.90;;;;;;5135351;27;20047;-68
2022/09/23 07:43:57;;;;;;;17.17;12.40;;;12.60;99.90;;;;;;5154369;27;20417;-68
2022/09/23 07:46:24;;;;;;;19.92;12.75;;;12.80;99.90;;;;;;5118930;27;20372;-70
2022/09/23 07:48:49;;;;;;;16.40;12.27;;;12.60;99.90;;;;;;5154228;27;20057;-69
2022/09/23 07:51:25;;;;;;;14.23;12.07;;;12.70;99.90;;;;;;5156533;27;20027;-68
2022/09/23 07:53:52;;;;;;;20.08;12.77;;;12.70;99.90;;;;;;5153311;27;20139;-67
2022/09/23 07:56:19;;;;;;;16.33;12.38;;;12.80;99.90;;;;;;5153726;27;20039;-70
2022/09/23 07:58:58;;;;;;;15.32;11.73;;;12.90;99.90;;;;;;5153142;27;20081;-69
2022/09/23 08:01:26;;;;;;;15.70;12.23;;;12.90;99.90;;;;;;5151833;27;20047;-69
2022/09/23 08:03:52;;;;;;;16.10;12.70;;;12.90;99.90;;;;;;5151819;27;20082;-68
2022/09/23 08:06:18;;;;;;;17.20;12.20;;;12.90;99.90;;;;;;5153509;27;20073;-67
2022/09/23 08:08:44;;;;;;;15.40;12.07;;;13.00;99.90;;;;;;5126370;27;20072;-68
2022/09/23 08:11:13;;;;;;;14.75;11.80;;;13.00;99.90;;;;;;5132909;27;20039;-70
2022/09/23 08:13:39;;;;;;;17.40;11.77;;;13.10;99.90;;;;;;5152885;27;20506;-68
2022/09/23 08:16:05;;;;;;;14.93;11.77;;;13.10;99.90;;;;;;5152218;27;20047;-68
2022/09/23 08:18:32;;;;;;;14.93;11.63;;;13.20;99.90;;;;;;5151519;27;20411;-68
2022/09/23 08:20:57;;;;;;;16.60;12.30;;;13.20;99.90;;;;;;5153358;27;20411;-68
2022/09/23 08:23:23;;;;;;;16.20;12.10;;;13.30;99.90;;;;;;5158639;27;20038;-68
2022/09/23 08:25:58;;;;;;;20.77;11.45;;;13.30;99.90;;;;;;5157966;27;20118;-67
2022/09/23 08:28:26;;;;;;;17.05;11.38;;;13.40;99.90;;;;;;5138726;27;20364;-68
2022/09/23 08:30:52;;;;;;;14.73;11.60;;;13.40;99.90;;;;;;5139559;27;20054;-70
2022/09/23 08:33:18;;;;;;;33.85;13.95;;;13.50;99.90;;;;;;5139236;27;20053;-69
2022/09/23 08:35:44;;;;;;;22.33;11.82;;;13.50;99.90;;;;;;5156845;27;20443;-69
2022/09/23 08:38:10;;;;;;;17.30;11.35;;;13.60;99.90;;;;;;5157547;27;20486;-70
2022/09/23 08:40:39;;;;;;;15.98;12.15;;;13.60;99.90;;;;;;5121968;27;20466;-69
2022/09/23 08:43:06;;;;;;;18.15;11.63;;;13.70;99.90;;;;;;5138567;27;20509;-69
2022/09/23 08:45:34;;;;;;;19.35;11.35;;;13.80;99.90;;;;;;5138844;27;20053;-69
2022/09/23 08:48:23;;;;;;;14.65;11.05;;;13.90;99.90;;;;;;5135463;27;20043;-69
2022/09/23 08:50:54;;;;;;;17.80;10.68;;;14.00;99.90;;;;;;5136102;27;20145;-69
2022/09/23 08:53:34;;;;;;;17.75;10.77;;;14.20;99.90;;;;;;5118655;27;20051;-68
2022/09/23 08:56:06;;;;;;;21.67;10.68;;;14.30;99.90;;;;;;5136563;27;20062;-69
2022/09/23 08:58:48;;;;;;;19.88;10.80;;;14.40;99.90;;;;;;5137207;27;20047;-69
2022/09/23 09:01:32;;;;;;;16.58;10.43;;;14.40;99.90;;;;;;5118214;27;20055;-68
2022/09/23 09:04:10;;;;;;;22.17;10.85;;;14.40;99.90;;;;;;5136666;27;20054;-68
2022/09/23 09:06:42;;;;;;;13.45;10.38;;;14.40;99.90;;;;;;5135271;27;20511;-68
2022/09/23 09:09:21;;;;;;;12.65;9.88;;;14.50;99.90;;;;;;5154515;27;20034;-68
2022/09/23 09:11:51;;;;;;;16.00;10.75;;;14.50;99.90;;;;;;5145882;27;20050;-74
2022/09/23 09:14:47;;;;;;;14.13;11.13;;;14.50;99.90;;;;;;5153833;27;20089;-75
2022/09/23 09:17:25;;;;;;;14.35;10.35;;;14.50;99.90;;;;;;5154203;27;20047;-75
2022/09/23 09:19:51;;;;;;;14.65;10.00;;;14.60;99.90;;;;;;5123988;27;20411;-74
2022/09/23 09:22:23;;;;;;;14.77;10.48;;;14.60;99.90;;;;;;5133431;27;20043;-76
2022/09/23 09:24:54;;;;;;;13.75;10.52;;;14.70;99.90;;;;;;5133185;27;20047;-74
2022/09/23 09:27:19;;;;;;;15.80;10.52;;;14.70;99.90;;;;;;5135700;27;20521;-74
2022/09/23 09:29:50;;;;;;;13.05;9.60;;;14.70;99.90;;;;;;5153893;27;20047;-74
2022/09/23 09:32:23;;;;;;;16.55;10.25;;;14.70;99.90;;;;;;5117918;27;20399;-74
2022/09/23 09:34:57;;;;;;;13.07;9.82;;;14.70;99.90;;;;;;5153216;27;20403;-73
2022/09/23 09:37:45;;;;;;;11.68;9.70;;;14.70;99.90;;;;;;5153028;27;20082;-74
2022/09/23 09:40:12;;;;;;;14.20;9.70;;;14.70;99.90;;;;;;5132835;27;20410;-71
2022/09/23 09:42:40;;;;;;;10.90;9.15;;;14.70;99.90;;;;;;5154977;27;20495;-70
2022/09/23 09:45:27;;;;;;;12.05;9.05;;;14.70;99.90;;;;;;5153746;27;20038;-72
2022/09/23 09:48:09;;;;;;;12.52;9.60;;;14.70;99.90;;;;;;5131048;27;20057;-68
2022/09/23 09:50:43;;;;;;;16.35;9.57;;;14.80;99.90;;;;;;5135778;27;20126;-68
2022/09/23 09:53:25;;;;;;;13.60;9.38;;;14.80;99.90;;;;;;5155467;27;20532;-69
2022/09/23 09:55:57;;;;;;;12.40;8.90;;;14.90;99.90;;;;;;5154057;27;20149;-70
2022/09/23 09:58:26;;;;;;;12.30;8.77;;;14.90;99.90;;;;;;5156485;27;20043;-69
2022/09/23 10:00:52;;;;;;;14.30;9.05;;;14.90;99.90;;;;;;5156009;27;20092;-70
2022/09/23 10:03:33;;;;;;;15.18;9.10;;;14.90;99.90;;;;;;5156550;27;20039;-69
2022/09/23 10:05:59;;;;;;;12.43;9.52;;;14.90;99.90;;;;;;5134649;27;20447;-71
2022/09/23 10:08:34;;;;;;;13.30;9.68;;;14.90;99.90;;;;;;5155867;27;20117;-70
2022/09/23 10:11:10;;;;;;;14.13;9.32;;;15.00;99.90;;;;;;5121265;27;20050;-70
2022/09/23 10:13:36;;;;;;;14.15;8.88;;;15.00;99.90;;;;;;5155819;27;20043;-70
2022/09/23 10:16:03;;;;;;;12.38;9.02;;;15.00;99.90;;;;;;5136880;27;20047;-70
2022/09/23 10:18:37;;;;;;;11.38;8.82;;;15.00;99.90;;;;;;5154981;27;20066;-70
2022/09/23 10:21:16;;;;;;;12.32;9.23;;;15.10;99.90;;;;;;5136308;27;20055;-70
2022/09/23 10:23:44;;;;;;;16.95;9.40;;;15.20;99.90;;;;;;5155240;27;20124;-69
2022/09/23 10:26:11;;;;;;;12.13;8.70;;;15.10;99.90;;;;;;5136114;27;20043;-69
2022/09/23 10:28:43;;;;;;;9.52;8.48;;;15.20;99.90;;;;;;5136988;27;20054;-70
2022/09/23 10:31:11;;;;;;;11.55;8.90;;;15.20;99.90;;;;;;5153191;27;20050;-71
2022/09/23 10:34:15;;;;;;;11.75;8.95;;;15.20;99.90;;;;;;5153015;27;20058;-70
2022/09/23 10:36:42;;;;;;;12.05;8.82;;;15.20;99.90;;;;;;5132920;27;20390;-69
2022/09/23 10:48:24;;;;;;;13.07;8.85;;;15.40;99.90;;;;;;5154886;27;20051;-71
2022/09/23 10:50:54;;;;;;;14.27;9.00;;;15.40;99.90;;;;;;5154603;27;20245;-71
2022/09/23 10:53:52;;;;;;;11.95;9.23;;;15.40;99.90;;;;;;5154319;27;20035;-70
2022/09/23 10:56:39;;;;;;;15.65;9.02;;;15.50;99.90;;;;;;5153561;27;20507;-71
2022/09/23 10:59:26;;;;;;;13.70;8.65;;;15.60;99.90;;;;;;5154352;27;20054;-71
2022/09/23 11:02:10;;;;;;;12.90;9.60;;;15.50;99.90;;;;;;5152496;27;20495;-72
2022/09/23 11:04:54;;;;;;;13.48;9.30;;;15.60;99.90;;;;;;5154449;27;20043;-70
2022/09/23 11:07:44;;;;;;;14.18;9.52;;;15.70;99.90;;;;;;5154609;27;20400;-70
2022/09/23 11:10:21;;;;;;;15.85;8.95;;;15.80;99.90;;;;;;5115477;27;20134;-71
2022/09/23 11:13:03;;;;;;;12.77;8.70;;;15.80;99.90;;;;;;5133707;27;20043;-70
2022/09/23 11:16:15;;;;;;;14.23;9.10;;;15.90;99.90;;;;;;5098742;27;20133;-70
2022/09/23 11:18:51;;;;;;;12.73;9.00;;;16.00;99.90;;;;;;5134351;27;20414;-71
2022/09/23 11:21:55;;;;;;;15.13;9.80;;;16.10;99.90;;;;;;5115529;27;20038;-70
2022/09/23 11:24:50;;;;;;;13.13;9.50;;;16.10;99.90;;;;;;5134021;27;20043;-70
2022/09/23 11:27:40;;;;;;;13.07;9.20;;;16.20;99.90;;;;;;5131865;27;20135;-70
2022/09/23 11:30:10;;;;;;;12.07;9.13;;;16.20;99.90;;;;;;5114307;27;20046;-71
2022/09/23 11:33:01;;;;;;;14.82;9.30;;;16.20;99.90;;;;;;5115157;27;20179;-71
2022/09/23 11:35:35;;;;;;;11.95;9.07;;;16.10;99.90;;;;;;5115064;27;20054;-69
2022/09/23 11:38:17;;;;;;;13.27;9.65;;;16.20;99.90;;;;;;5134204;27;20043;-70
2022/09/23 11:40:50;;;;;;;12.63;9.73;;;16.10;99.90;;;;;;5133400;27;20046;-70
2022/09/23 11:43:27;;;;;;;16.50;9.77;;;16.10;99.90;;;;;;5149307;27;20046;-70
2022/09/23 11:46:08;;;;;;;14.40;9.90;;;16.10;99.90;;;;;;5133122;27;20483;-70
2022/09/23 11:49:08;;;;;;;13.23;9.48;;;16.10;99.90;;;;;;5134323;27;20050;-74
2022/09/23 11:51:52;;;;;;;12.55;9.93;;;16.00;99.90;;;;;;5115100;27;20058;-69
2022/09/23 11:54:56;;;;;;;13.80;9.70;;;16.00;99.90;;;;;;5133440;27;20139;-72
2022/09/23 11:57:49;;;;;;;13.45;9.50;;;16.00;99.90;;;;;;5108302;27;20058;-71
2022/09/23 12:00:17;;;;;;;12.23;9.55;;;16.10;99.90;;;;;;5114846;27;20050;-71
2022/09/23 12:02:52;;;;;;;14.20;9.85;;;16.10;99.90;;;;;;5133373;27;20210;-71
2022/09/23 12:05:22;;;;;;;14.10;10.05;;;16.10;99.90;;;;;;5114933;27;20043;-71
2022/09/23 12:07:55;;;;;;;15.32;10.20;;;16.10;99.90;;;;;;5133709;27;20079;-70
2022/09/23 12:10:26;;;;;;;15.02;10.18;;;16.10;99.90;;;;;;5133178;27;20054;-70
2022/09/23 12:13:16;;;;;;;16.20;9.77;;;16.10;99.90;;;;;;5132519;27;20479;-70
2022/09/23 12:16:08;;;;;;;14.93;9.73;;;16.10;99.90;;;;;;5130661;28;20539;-71
2022/09/23 12:18:59;;;;;;;12.98;10.00;;;16.10;99.90;;;;;;5133066;27;20496;-70
2022/09/23 12:21:39;;;;;;;14.48;10.10;;;16.10;99.90;;;;;;5132998;28;20099;-70
2022/09/23 12:24:31;;;;;;;13.65;9.70;;;16.20;99.90;;;;;;5133133;28;20051;-70
2022/09/23 12:27:01;;;;;;;13.40;10.02;;;16.20;99.90;;;;;;5103291;28;20476;-70
2022/09/23 12:29:30;;;;;;;14.18;9.52;;;16.20;99.90;;;;;;5149700;27;20208;-71
2022/09/23 12:31:57;;;;;;;13.50;9.63;;;16.20;99.90;;;;;;5132935;28;20035;-71
2022/09/23 12:34:47;;;;;;;15.30;9.90;;;16.20;99.90;;;;;;5132767;27;20058;-71
2022/09/23 12:37:23;;;;;;;19.05;9.98;;;16.30;99.90;;;;;;5111629;28;20500;-71
2022/09/23 12:39:48;;;;;;;14.98;9.48;;;16.30;99.90;;;;;;5133635;28;20088;-70
2022/09/23 12:42:18;;;;;;;13.43;10.05;;;16.30;99.90;;;;;;5148683;27;20039;-71
2022/09/23 12:44:46;;;;;;;14.52;9.68;;;16.40;99.90;;;;;;5133207;28;20051;-70
2022/09/23 12:47:20;;;;;;;13.48;9.90;;;16.40;99.90;;;;;;5132667;28;20377;-70
2022/09/23 12:49:47;;;;;;;13.35;9.75;;;16.50;99.90;;;;;;5133063;28;20047;-71
2022/09/23 12:52:15;;;;;;;12.52;9.65;;;16.60;99.90;;;;;;5132420;28;20046;-69
2022/09/23 12:54:42;;;;;;;17.00;9.85;;;16.60;99.90;;;;;;5114396;28;20047;-71
2022/09/23 12:57:13;;;;;;;13.23;9.90;;;16.60;99.90;;;;;;5132680;28;20121;-70
2022/09/23 12:59:52;;;;;;;14.63;9.88;;;16.60;99.90;;;;;;5113450;28;20154;-70
2022/09/23 13:02:34;;;;;;;14.50;10.20;;;16.70;99.90;;;;;;5131732;27;20047;-70
2022/09/23 13:08:10;;;;;;;15.65;10.20;;;16.70;99.90;;;;;;5132236;27;20101;-69
2022/09/23 13:10:48;;;;;;;14.55;10.43;;;16.70;99.90;;;;;;5135991;27;20039;-71
2022/09/23 13:13:38;;;;;;;15.65;10.88;;;16.60;99.90;;;;;;5136279;27;20062;-70
2022/09/23 13:16:19;;;;;;;15.45;11.18;;;16.50;99.90;;;;;;5136305;27;20078;-69